sensor_id;sensor_type;location;lat;lon;timestamp;temperature;humidity
51884;DHT22;37915;53.254;6.598;2023-01-16T00:01:25;4.10;99.90
51884;DHT22;37915;53.254;6.598;2023-01-16T00:03:51;4.10;99.90
51884;DHT22;37915;53.254;6.598;2023-01-16T00:06:16;4.10;99.90
51884;DHT22;37915;53.254;6.598;2023-01-16T00:08:43;4.10;99.90
51884;DHT22;37915;53.254;6.598;2023-01-16T00:11:10;4.60;99.90
51884;DHT22;37915;53.254;6.598;2023-01-16T00:13:36;4.20;99.90
51884;DHT22;37915;53.254;6.598;2023-01-16T00:16:02;4.40;99.90
51884;DHT22;37915;53.254;6.598;2023-01-16T00:18:28;4.20;99.90
51884;DHT22;37915;53.254;6.598;2023-01-16T00:20:53;4.10;99.90
51884;DHT22;37915;53.254;6.598;2023-01-16T00:23:19;4.20;99.90
51884;DHT22;37915;53.254;6.598;2023-01-16T00:25:45;4.10;99.90
51884;DHT22;37915;53.254;6.598;2023-01-16T00:28:12;4.10;99.90
51884;DHT22;37915;53.254;6.598;2023-01-16T00:30:38;4.10;99.90
51884;DHT22;37915;53.254;6.598;2023-01-16T00:33:04;4.20;99.90
51884;DHT22;37915;53.254;6.598;2023-01-16T00:35:31;4.90;99.90
51884;DHT22;37915;53.254;6.598;2023-01-16T00:37:57;4.20;99.90
51884;DHT22;37915;53.254;6.598;2023-01-16T00:40:23;4.20;99.90
51884;DHT22;37915;53.254;6.598;2023-01-16T00:42:48;4.20;99.90
51884;DHT22;37915;53.254;6.598;2023-01-16T00:45:14;4.60;99.90
51884;DHT22;37915;53.254;6.598;2023-01-16T00:47:40;4.20;99.90
51884;DHT22;37915;53.254;6.598;2023-01-16T00:50:06;4.20;99.90
51884;DHT22;37915;53.254;6.598;2023-01-16T00:52:32;4.20;99.90
51884;DHT22;37915;53.254;6.598;2023-01-16T00:54:58;4.10;99.90
51884;DHT22;37915;53.254;6.598;2023-01-16T00:57:24;5.10;99.90
51884;DHT22;37915;53.254;6.598;2023-01-16T00:59:49;4.60;99.90
51884;DHT22;37915;53.254;6.598;2023-01-16T01:02:15;4.20;99.90
51884;DHT22;37915;53.254;6.598;2023-01-16T01:04:41;4.10;99.90
51884;DHT22;37915;53.254;6.598;2023-01-16T01:07:06;4.10;99.90
51884;DHT22;37915;53.254;6.598;2023-01-16T01:09:32;4.00;99.90
51884;DHT22;37915;53.254;6.598;2023-01-16T01:11:58;4.00;99.90
51884;DHT22;37915;53.254;6.598;2023-01-16T01:14:24;4.00;99.90
51884;DHT22;37915;53.254;6.598;2023-01-16T01:16:50;4.80;99.90
51884;DHT22;37915;53.254;6.598;2023-01-16T01:19:16;4.50;99.90
51884;DHT22;37915;53.254;6.598;2023-01-16T01:21:42;4.10;99.90
51884;DHT22;37915;53.254;6.598;2023-01-16T01:24:08;3.90;99.90
51884;DHT22;37915;53.254;6.598;2023-01-16T01:26:34;3.90;99.90
51884;DHT22;37915;53.254;6.598;2023-01-16T01:29:00;4.20;99.90
51884;DHT22;37915;53.254;6.598;2023-01-16T01:31:26;4.00;99.90
51884;DHT22;37915;53.254;6.598;2023-01-16T01:33:51;3.80;99.90
51884;DHT22;37915;53.254;6.598;2023-01-16T01:36:17;3.80;99.90
51884;DHT22;37915;53.254;6.598;2023-01-16T01:38:43;4.70;99.90
51884;DHT22;37915;53.254;6.598;2023-01-16T01:41:13;4.40;99.90
51884;DHT22;37915;53.254;6.598;2023-01-16T01:49:00;3.80;99.90
51884;DHT22;37915;53.254;6.598;2023-01-16T01:51:36;3.80;99.90
51884;DHT22;37915;53.254;6.598;2023-01-16T01:54:07;4.40;99.90
51884;DHT22;37915;53.254;6.598;2023-01-16T01:56:39;3.80;99.90
51884;DHT22;37915;53.254;6.598;2023-01-16T01:59:08;3.80;99.90
51884;DHT22;37915;53.254;6.598;2023-01-16T02:01:37;3.70;99.90
51884;DHT22;37915;53.254;6.598;2023-01-16T02:04:09;3.70;99.90
51884;DHT22;37915;53.254;6.598;2023-01-16T02:09:06;3.70;99.90
51884;DHT22;37915;53.254;6.598;2023-01-16T02:11:53;3.70;99.90
51884;DHT22;37915;53.254;6.598;2023-01-16T02:14:20;3.70;99.90
51884;DHT22;37915;53.254;6.598;2023-01-16T02:16:49;3.60;99.90
51884;DHT22;37915;53.254;6.598;2023-01-16T02:33:15;3.70;99.90
51884;DHT22;37915;53.254;6.598;2023-01-16T02:38:55;3.70;99.90
51884;DHT22;37915;53.254;6.598;2023-01-16T02:41:52;4.90;99.90
51884;DHT22;37915;53.254;6.598;2023-01-16T02:44:41;3.70;99.90
51884;DHT22;37915;53.254;6.598;2023-01-16T02:47:16;3.70;99.90
51884;DHT22;37915;53.254;6.598;2023-01-16T02:52:52;3.70;99.90
51884;DHT22;37915;53.254;6.598;2023-01-16T02:55:32;3.70;99.90
51884;DHT22;37915;53.254;6.598;2023-01-16T02:58:05;3.90;99.90
51884;DHT22;37915;53.254;6.598;2023-01-16T03:00:33;4.10;99.90
51884;DHT22;37915;53.254;6.598;2023-01-16T03:02:59;3.70;99.90
51884;DHT22;37915;53.254;6.598;2023-01-16T03:05:26;3.80;99.90
51884;DHT22;37915;53.254;6.598;2023-01-16T03:21:12;3.80;99.90
51884;DHT22;37915;53.254;6.598;2023-01-16T03:26:16;3.80;99.90
51884;DHT22;37915;53.254;6.598;2023-01-16T03:31:18;4.10;99.90
51884;DHT22;37915;53.254;6.598;2023-01-16T03:33:55;4.10;99.90
51884;DHT22;37915;53.254;6.598;2023-01-16T03:36:45;3.70;99.90
51884;DHT22;37915;53.254;6.598;2023-01-16T03:39:14;3.70;99.90
51884;DHT22;37915;53.254;6.598;2023-01-16T03:41:43;4.60;99.90
51884;DHT22;37915;53.254;6.598;2023-01-16T03:44:17;3.70;99.90
51884;DHT22;37915;53.254;6.598;2023-01-16T03:46:50;4.10;99.90
51884;DHT22;37915;53.254;6.598;2023-01-16T03:49:23;4.30;99.90
51884;DHT22;37915;53.254;6.598;2023-01-16T03:51:51;3.70;99.90
51884;DHT22;37915;53.254;6.598;2023-01-16T03:54:46;4.50;99.90
51884;DHT22;37915;53.254;6.598;2023-01-16T03:59:45;3.60;99.90
51884;DHT22;37915;53.254;6.598;2023-01-16T04:02:32;3.60;99.90
51884;DHT22;37915;53.254;6.598;2023-01-16T04:05:22;3.60;99.90
51884;DHT22;37915;53.254;6.598;2023-01-16T04:08:14;3.60;99.90
51884;DHT22;37915;53.254;6.598;2023-01-16T04:10:43;3.60;99.90
51884;DHT22;37915;53.254;6.598;2023-01-16T04:13:18;4.30;99.90
51884;DHT22;37915;53.254;6.598;2023-01-16T04:15:48;3.60;99.90
51884;DHT22;37915;53.254;6.598;2023-01-16T04:18:15;3.60;99.90
51884;DHT22;37915;53.254;6.598;2023-01-16T04:20:44;3.60;99.90
51884;DHT22;37915;53.254;6.598;2023-01-16T04:23:12;3.60;99.90
51884;DHT22;37915;53.254;6.598;2023-01-16T04:25:39;3.60;99.90
51884;DHT22;37915;53.254;6.598;2023-01-16T04:28:04;3.70;99.90
51884;DHT22;37915;53.254;6.598;2023-01-16T04:30:30;3.70;99.90
51884;DHT22;37915;53.254;6.598;2023-01-16T04:32:56;3.70;99.90
51884;DHT22;37915;53.254;6.598;2023-01-16T04:35:21;3.70;99.90
51884;DHT22;37915;53.254;6.598;2023-01-16T04:37:47;3.70;99.90
51884;DHT22;37915;53.254;6.598;2023-01-16T04:40:13;3.70;99.90
51884;DHT22;37915;53.254;6.598;2023-01-16T04:42:38;3.80;99.90
51884;DHT22;37915;53.254;6.598;2023-01-16T04:45:04;4.20;99.90
51884;DHT22;37915;53.254;6.598;2023-01-16T04:47:30;3.80;99.90
51884;DHT22;37915;53.254;6.598;2023-01-16T04:49:56;3.60;99.90
51884;DHT22;37915;53.254;6.598;2023-01-16T04:52:22;3.80;99.90
51884;DHT22;37915;53.254;6.598;2023-01-16T04:54:47;4.40;99.90
51884;DHT22;37915;53.254;6.598;2023-01-16T04:57:13;3.70;99.90
51884;DHT22;37915;53.254;6.598;2023-01-16T04:59:39;3.80;99.90
51884;DHT22;37915;53.254;6.598;2023-01-16T05:02:04;3.80;99.90
51884;DHT22;37915;53.254;6.598;2023-01-16T05:04:30;3.90;99.90
51884;DHT22;37915;53.254;6.598;2023-01-16T05:06:56;3.80;99.90
51884;DHT22;37915;53.254;6.598;2023-01-16T05:09:21;3.80;99.90
51884;DHT22;37915;53.254;6.598;2023-01-16T05:11:47;3.80;99.90
51884;DHT22;37915;53.254;6.598;2023-01-16T05:14:13;3.80;99.90
51884;DHT22;37915;53.254;6.598;2023-01-16T05:16:39;4.20;99.90
51884;DHT22;37915;53.254;6.598;2023-01-16T05:19:07;4.70;99.90
51884;DHT22;37915;53.254;6.598;2023-01-16T05:21:33;3.90;99.90
51884;DHT22;37915;53.254;6.598;2023-01-16T05:23:59;3.80;99.90
51884;DHT22;37915;53.254;6.598;2023-01-16T05:26:25;3.80;99.90
51884;DHT22;37915;53.254;6.598;2023-01-16T05:28:51;3.80;99.90
51884;DHT22;37915;53.254;6.598;2023-01-16T05:31:16;3.80;99.90
51884;DHT22;37915;53.254;6.598;2023-01-16T05:33:42;3.70;99.90
51884;DHT22;37915;53.254;6.598;2023-01-16T05:36:08;3.70;99.90
51884;DHT22;37915;53.254;6.598;2023-01-16T05:38:34;4.30;99.90
51884;DHT22;37915;53.254;6.598;2023-01-16T05:41:00;3.60;99.90
51884;DHT22;37915;53.254;6.598;2023-01-16T05:43:26;3.60;99.90
51884;DHT22;37915;53.254;6.598;2023-01-16T05:45:52;3.70;99.90
51884;DHT22;37915;53.254;6.598;2023-01-16T05:48:17;3.50;99.90
51884;DHT22;37915;53.254;6.598;2023-01-16T05:50:43;4.00;99.90
51884;DHT22;37915;53.254;6.598;2023-01-16T05:53:09;3.40;99.90
51884;DHT22;37915;53.254;6.598;2023-01-16T05:55:53;4.30;99.90
51884;DHT22;37915;53.254;6.598;2023-01-16T05:58:19;3.40;99.90
51884;DHT22;37915;53.254;6.598;2023-01-16T06:00:44;3.40;99.90
51884;DHT22;37915;53.254;6.598;2023-01-16T06:03:10;3.60;99.90
51884;DHT22;37915;53.254;6.598;2023-01-16T06:05:36;3.30;99.90
51884;DHT22;37915;53.254;6.598;2023-01-16T06:08:02;3.30;99.90
51884;DHT22;37915;53.254;6.598;2023-01-16T06:10:28;3.30;99.90
51884;DHT22;37915;53.254;6.598;2023-01-16T06:12:54;4.40;99.90
51884;DHT22;37915;53.254;6.598;2023-01-16T06:15:19;3.80;99.90
51884;DHT22;37915;53.254;6.598;2023-01-16T06:17:45;3.00;99.90
51884;DHT22;37915;53.254;6.598;2023-01-16T06:20:11;3.30;99.90
51884;DHT22;37915;53.254;6.598;2023-01-16T06:22:37;3.20;99.90
51884;DHT22;37915;53.254;6.598;2023-01-16T06:25:04;3.30;99.90
51884;DHT22;37915;53.254;6.598;2023-01-16T06:27:30;3.20;99.90
51884;DHT22;37915;53.254;6.598;2023-01-16T06:29:57;3.40;99.90
51884;DHT22;37915;53.254;6.598;2023-01-16T06:32:22;3.20;99.90
51884;DHT22;37915;53.254;6.598;2023-01-16T06:34:48;3.80;99.90
51884;DHT22;37915;53.254;6.598;2023-01-16T06:37:14;4.00;99.90
51884;DHT22;37915;53.254;6.598;2023-01-16T06:39:39;3.20;99.90
51884;DHT22;37915;53.254;6.598;2023-01-16T06:42:05;3.20;99.90
51884;DHT22;37915;53.254;6.598;2023-01-16T06:44:32;3.20;99.90
51884;DHT22;37915;53.254;6.598;2023-01-16T06:46:59;3.20;99.90
51884;DHT22;37915;53.254;6.598;2023-01-16T06:49:25;3.20;99.90
51884;DHT22;37915;53.254;6.598;2023-01-16T06:51:51;3.20;99.90
51884;DHT22;37915;53.254;6.598;2023-01-16T06:54:17;3.20;99.90
51884;DHT22;37915;53.254;6.598;2023-01-16T06:56:42;3.20;99.90
51884;DHT22;37915;53.254;6.598;2023-01-16T06:59:08;3.70;99.90
51884;DHT22;37915;53.254;6.598;2023-01-16T07:01:34;3.20;99.90
51884;DHT22;37915;53.254;6.598;2023-01-16T07:04:00;3.20;99.90
51884;DHT22;37915;53.254;6.598;2023-01-16T07:06:25;4.50;99.90
51884;DHT22;37915;53.254;6.598;2023-01-16T07:08:51;3.40;99.90
51884;DHT22;37915;53.254;6.598;2023-01-16T07:11:18;3.50;99.90
51884;DHT22;37915;53.254;6.598;2023-01-16T07:13:44;4.10;99.90
51884;DHT22;37915;53.254;6.598;2023-01-16T07:16:11;3.20;99.90
51884;DHT22;37915;53.254;6.598;2023-01-16T07:18:56;3.10;99.90
51884;DHT22;37915;53.254;6.598;2023-01-16T07:21:43;3.70;99.90
51884;DHT22;37915;53.254;6.598;2023-01-16T07:24:30;3.20;99.90
51884;DHT22;37915;53.254;6.598;2023-01-16T07:26:59;3.30;99.90
51884;DHT22;37915;53.254;6.598;2023-01-16T07:29:30;3.20;99.90
51884;DHT22;37915;53.254;6.598;2023-01-16T07:31:58;3.10;99.90
51884;DHT22;37915;53.254;6.598;2023-01-16T07:34:24;3.10;99.90
51884;DHT22;37915;53.254;6.598;2023-01-16T07:36:50;3.00;99.90
51884;DHT22;37915;53.254;6.598;2023-01-16T07:39:16;4.00;99.90
51884;DHT22;37915;53.254;6.598;2023-01-16T07:41:41;3.00;99.90
51884;DHT22;37915;53.254;6.598;2023-01-16T07:44:07;3.40;99.90
51884;DHT22;37915;53.254;6.598;2023-01-16T07:46:33;3.20;99.90
51884;DHT22;37915;53.254;6.598;2023-01-16T07:48:58;3.10;99.90
51884;DHT22;37915;53.254;6.598;2023-01-16T07:51:24;3.10;99.90
51884;DHT22;37915;53.254;6.598;2023-01-16T07:53:50;3.10;99.90
51884;DHT22;37915;53.254;6.598;2023-01-16T07:56:16;3.40;99.90
51884;DHT22;37915;53.254;6.598;2023-01-16T07:58:41;3.20;99.90
51884;DHT22;37915;53.254;6.598;2023-01-16T08:01:09;3.40;99.90
51884;DHT22;37915;53.254;6.598;2023-01-16T08:03:36;3.20;99.90
51884;DHT22;37915;53.254;6.598;2023-01-16T08:06:02;3.70;99.90
51884;DHT22;37915;53.254;6.598;2023-01-16T08:08:29;3.10;99.90
51884;DHT22;37915;53.254;6.598;2023-01-16T08:10:55;3.10;99.90
51884;DHT22;37915;53.254;6.598;2023-01-16T08:13:22;3.10;99.90
51884;DHT22;37915;53.254;6.598;2023-01-16T08:15:48;3.10;99.90
51884;DHT22;37915;53.254;6.598;2023-01-16T08:18:16;3.10;99.90
51884;DHT22;37915;53.254;6.598;2023-01-16T08:20:43;3.10;99.90
51884;DHT22;37915;53.254;6.598;2023-01-16T08:23:10;3.30;99.90
51884;DHT22;37915;53.254;6.598;2023-01-16T08:25:37;3.60;99.90
51884;DHT22;37915;53.254;6.598;2023-01-16T08:28:03;3.10;99.90
51884;DHT22;37915;53.254;6.598;2023-01-16T08:30:29;3.10;99.90
51884;DHT22;37915;53.254;6.598;2023-01-16T08:32:59;3.10;99.90
51884;DHT22;37915;53.254;6.598;2023-01-16T08:35:25;3.40;99.90
51884;DHT22;37915;53.254;6.598;2023-01-16T08:37:51;3.10;99.90
51884;DHT22;37915;53.254;6.598;2023-01-16T08:40:17;3.10;99.90
51884;DHT22;37915;53.254;6.598;2023-01-16T08:42:43;3.20;99.90
51884;DHT22;37915;53.254;6.598;2023-01-16T08:45:27;3.20;99.90
51884;DHT22;37915;53.254;6.598;2023-01-16T08:48:15;3.20;99.90
51884;DHT22;37915;53.254;6.598;2023-01-16T08:51:03;3.20;99.90
51884;DHT22;37915;53.254;6.598;2023-01-16T08:53:47;3.20;99.90
51884;DHT22;37915;53.254;6.598;2023-01-16T08:56:13;3.30;99.90
51884;DHT22;37915;53.254;6.598;2023-01-16T08:58:39;3.40;99.90
51884;DHT22;37915;53.254;6.598;2023-01-16T09:01:05;3.30;99.90
51884;DHT22;37915;53.254;6.598;2023-01-16T09:03:31;3.30;99.90
51884;DHT22;37915;53.254;6.598;2023-01-16T09:05:59;3.30;99.90
51884;DHT22;37915;53.254;6.598;2023-01-16T09:08:24;3.30;99.90
51884;DHT22;37915;53.254;6.598;2023-01-16T09:10:50;3.40;99.90
51884;DHT22;37915;53.254;6.598;2023-01-16T09:13:34;3.40;99.90
51884;DHT22;37915;53.254;6.598;2023-01-16T09:16:21;3.90;99.90
51884;DHT22;37915;53.254;6.598;2023-01-16T09:18:47;3.40;99.90
51884;DHT22;37915;53.254;6.598;2023-01-16T09:21:13;3.50;99.90
51884;DHT22;37915;53.254;6.598;2023-01-16T09:23:39;3.50;99.90
51884;DHT22;37915;53.254;6.598;2023-01-16T09:26:05;3.80;99.90
51884;DHT22;37915;53.254;6.598;2023-01-16T09:28:31;3.40;99.90
51884;DHT22;37915;53.254;6.598;2023-01-16T09:30:57;4.40;99.90
51884;DHT22;37915;53.254;6.598;2023-01-16T09:33:22;3.90;99.90
51884;DHT22;37915;53.254;6.598;2023-01-16T09:35:48;3.50;99.90
51884;DHT22;37915;53.254;6.598;2023-01-16T09:38:14;3.20;99.90
51884;DHT22;37915;53.254;6.598;2023-01-16T09:40:43;3.60;99.90
51884;DHT22;37915;53.254;6.598;2023-01-16T09:43:34;3.50;99.90
51884;DHT22;37915;53.254;6.598;2023-01-16T09:46:13;3.60;99.90
51884;DHT22;37915;53.254;6.598;2023-01-16T09:48:58;3.60;99.90
51884;DHT22;37915;53.254;6.598;2023-01-16T09:51:49;3.60;99.90
51884;DHT22;37915;53.254;6.598;2023-01-16T09:54:44;3.70;99.90
51884;DHT22;37915;53.254;6.598;2023-01-16T09:57:32;3.70;99.90
51884;DHT22;37915;53.254;6.598;2023-01-16T10:00:17;3.70;99.90
51884;DHT22;37915;53.254;6.598;2023-01-16T10:02:44;3.70;99.90
51884;DHT22;37915;53.254;6.598;2023-01-16T10:05:11;3.70;99.90
51884;DHT22;37915;53.254;6.598;2023-01-16T10:07:49;3.60;99.90
51884;DHT22;37915;53.254;6.598;2023-01-16T10:10:42;3.70;99.90
51884;DHT22;37915;53.254;6.598;2023-01-16T10:16:21;3.80;99.90
51884;DHT22;37915;53.254;6.598;2023-01-16T10:19:15;3.80;99.90
51884;DHT22;37915;53.254;6.598;2023-01-16T10:21:54;3.80;99.90
51884;DHT22;37915;53.254;6.598;2023-01-16T10:26:57;3.90;99.90
51884;DHT22;37915;53.254;6.598;2023-01-16T10:29:34;4.00;99.90
51884;DHT22;37915;53.254;6.598;2023-01-16T10:34:39;3.80;99.90
51884;DHT22;37915;53.254;6.598;2023-01-16T10:37:06;3.90;99.90
51884;DHT22;37915;53.254;6.598;2023-01-16T10:39:34;4.60;99.90
51884;DHT22;37915;53.254;6.598;2023-01-16T10:42:12;3.90;99.90
51884;DHT22;37915;53.254;6.598;2023-01-16T10:47:41;3.90;99.90
51884;DHT22;37915;53.254;6.598;2023-01-16T10:50:26;3.90;99.90
51884;DHT22;37915;53.254;6.598;2023-01-16T10:52:53;3.80;99.90
51884;DHT22;37915;53.254;6.598;2023-01-16T10:55:19;3.90;99.90
51884;DHT22;37915;53.254;6.598;2023-01-16T10:57:52;4.00;99.90
51884;DHT22;37915;53.254;6.598;2023-01-16T11:00:37;3.90;99.90
51884;DHT22;37915;53.254;6.598;2023-01-16T11:03:31;3.80;99.90
51884;DHT22;37915;53.254;6.598;2023-01-16T11:06:17;3.80;99.90
51884;DHT22;37915;53.254;6.598;2023-01-16T11:08:46;3.80;99.90
51884;DHT22;37915;53.254;6.598;2023-01-16T11:11:14;3.90;99.90
51884;DHT22;37915;53.254;6.598;2023-01-16T11:14:00;3.80;99.90
51884;DHT22;37915;53.254;6.598;2023-01-16T11:16:44;3.70;99.90
51884;DHT22;37915;53.254;6.598;2023-01-16T11:19:42;3.70;99.90
51884;DHT22;37915;53.254;6.598;2023-01-16T11:22:24;3.60;99.90
51884;DHT22;37915;53.254;6.598;2023-01-16T11:24:56;4.40;99.90
51884;DHT22;37915;53.254;6.598;2023-01-16T11:27:25;4.40;99.90
51884;DHT22;37915;53.254;6.598;2023-01-16T11:29:55;3.50;99.90
51884;DHT22;37915;53.254;6.598;2023-01-16T11:32:24;3.50;99.90
51884;DHT22;37915;53.254;6.598;2023-01-16T11:34:55;3.50;99.90
51884;DHT22;37915;53.254;6.598;2023-01-16T11:37:23;3.30;99.90
51884;DHT22;37915;53.254;6.598;2023-01-16T11:39:53;3.40;99.90
51884;DHT22;37915;53.254;6.598;2023-01-16T11:42:20;3.60;99.90
51884;DHT22;37915;53.254;6.598;2023-01-16T11:45:24;3.30;99.90
51884;DHT22;37915;53.254;6.598;2023-01-16T11:48:14;3.30;99.90
51884;DHT22;37915;53.254;6.598;2023-01-16T11:50:51;3.50;99.90
51884;DHT22;37915;53.254;6.598;2023-01-16T11:53:17;3.30;99.90
51884;DHT22;37915;53.254;6.598;2023-01-16T12:01:11;3.30;99.90
51884;DHT22;37915;53.254;6.598;2023-01-16T12:04:17;3.30;99.90
51884;DHT22;37915;53.254;6.598;2023-01-16T12:07:19;3.40;99.90
51884;DHT22;37915;53.254;6.598;2023-01-16T12:10:19;3.40;99.90
51884;DHT22;37915;53.254;6.598;2023-01-16T12:13:10;3.40;99.90
51884;DHT22;37915;53.254;6.598;2023-01-16T12:16:04;3.40;99.90
51884;DHT22;37915;53.254;6.598;2023-01-16T12:21:35;3.40;99.90
51884;DHT22;37915;53.254;6.598;2023-01-16T12:24:41;3.40;99.90
51884;DHT22;37915;53.254;6.598;2023-01-16T12:27:12;3.50;99.90
51884;DHT22;37915;53.254;6.598;2023-01-16T12:36:06;3.40;99.90
51884;DHT22;37915;53.254;6.598;2023-01-16T12:41:19;3.50;99.90
51884;DHT22;37915;53.254;6.598;2023-01-16T12:46:44;3.50;99.90
51884;DHT22;37915;53.254;6.598;2023-01-16T12:49:30;3.50;99.90
51884;DHT22;37915;53.254;6.598;2023-01-16T13:00:25;3.60;99.90
51884;DHT22;37915;53.254;6.598;2023-01-16T13:05:35;3.60;99.90
51884;DHT22;37915;53.254;6.598;2023-01-16T13:08:22;3.60;99.90
51884;DHT22;37915;53.254;6.598;2023-01-16T13:10:53;4.50;99.90
51884;DHT22;37915;53.254;6.598;2023-01-16T13:13:58;4.50;99.90
51884;DHT22;37915;53.254;6.598;2023-01-16T13:16:32;3.70;99.90
51884;DHT22;37915;53.254;6.598;2023-01-16T13:21:33;3.80;99.90
51884;DHT22;37915;53.254;6.598;2023-01-16T13:24:14;3.80;99.90
51884;DHT22;37915;53.254;6.598;2023-01-16T13:26:51;3.80;99.90
51884;DHT22;37915;53.254;6.598;2023-01-16T13:29:29;4.60;99.90
51884;DHT22;37915;53.254;6.598;2023-01-16T13:32:11;3.80;99.90
51884;DHT22;37915;53.254;6.598;2023-01-16T13:34:45;3.80;99.90
51884;DHT22;37915;53.254;6.598;2023-01-16T13:40:24;3.80;99.90
51884;DHT22;37915;53.254;6.598;2023-01-16T13:43:03;3.80;99.90
51884;DHT22;37915;53.254;6.598;2023-01-16T13:45:51;3.80;99.90
51884;DHT22;37915;53.254;6.598;2023-01-16T13:48:36;3.90;99.90
51884;DHT22;37915;53.254;6.598;2023-01-16T13:51:09;3.90;99.90
51884;DHT22;37915;53.254;6.598;2023-01-16T13:53:37;3.90;99.90
51884;DHT22;37915;53.254;6.598;2023-01-16T13:56:12;3.90;99.90
51884;DHT22;37915;53.254;6.598;2023-01-16T13:58:45;3.90;99.90
51884;DHT22;37915;53.254;6.598;2023-01-16T14:06:50;4.00;99.90
51884;DHT22;37915;53.254;6.598;2023-01-16T14:09:59;4.00;99.90
51884;DHT22;37915;53.254;6.598;2023-01-16T14:12:58;4.00;99.90
51884;DHT22;37915;53.254;6.598;2023-01-16T14:15:25;4.00;99.90
51884;DHT22;37915;53.254;6.598;2023-01-16T14:18:20;4.00;99.90
51884;DHT22;37915;53.254;6.598;2023-01-16T14:23:25;4.00;99.90
51884;DHT22;37915;53.254;6.598;2023-01-16T14:29:32;4.10;99.90
51884;DHT22;37915;53.254;6.598;2023-01-16T14:34:51;4.10;99.90
51884;DHT22;37915;53.254;6.598;2023-01-16T14:37:25;4.10;99.90
51884;DHT22;37915;53.254;6.598;2023-01-16T14:42:44;4.10;99.90
51884;DHT22;37915;53.254;6.598;2023-01-16T14:45:35;4.10;99.90
51884;DHT22;37915;53.254;6.598;2023-01-16T14:53:58;4.10;99.90
51884;DHT22;37915;53.254;6.598;2023-01-16T14:57:12;4.10;99.90
51884;DHT22;37915;53.254;6.598;2023-01-16T14:59:58;4.10;99.90
51884;DHT22;37915;53.254;6.598;2023-01-16T15:02:31;4.10;99.90
51884;DHT22;37915;53.254;6.598;2023-01-16T15:05:14;4.10;99.90
51884;DHT22;37915;53.254;6.598;2023-01-16T15:07:56;4.10;99.90
51884;DHT22;37915;53.254;6.598;2023-01-16T15:13:15;4.10;99.90
51884;DHT22;37915;53.254;6.598;2023-01-16T15:15:46;3.90;99.90
51884;DHT22;37915;53.254;6.598;2023-01-16T15:18:13;4.70;99.90
51884;DHT22;37915;53.254;6.598;2023-01-16T15:20:59;4.10;99.90
51884;DHT22;37915;53.254;6.598;2023-01-16T15:23:56;4.40;99.90
51884;DHT22;37915;53.254;6.598;2023-01-16T15:29:29;4.10;99.90
51884;DHT22;37915;53.254;6.598;2023-01-16T15:32:00;4.10;99.90
51884;DHT22;37915;53.254;6.598;2023-01-16T15:34:31;4.20;99.90
51884;DHT22;37915;53.254;6.598;2023-01-16T15:36:58;4.10;99.90
51884;DHT22;37915;53.254;6.598;2023-01-16T15:39:32;4.10;99.90
51884;DHT22;37915;53.254;6.598;2023-01-16T15:42:10;4.10;99.90
51884;DHT22;37915;53.254;6.598;2023-01-16T15:44:57;4.10;99.90
51884;DHT22;37915;53.254;6.598;2023-01-16T15:53:15;4.10;99.90
51884;DHT22;37915;53.254;6.598;2023-01-16T15:55:45;4.10;99.90
51884;DHT22;37915;53.254;6.598;2023-01-16T15:58:19;4.10;99.90
51884;DHT22;37915;53.254;6.598;2023-01-16T16:01:03;4.10;99.90
51884;DHT22;37915;53.254;6.598;2023-01-16T16:03:30;4.10;99.90
51884;DHT22;37915;53.254;6.598;2023-01-16T16:06:04;4.40;99.90
51884;DHT22;37915;53.254;6.598;2023-01-16T16:08:35;4.10;99.90
51884;DHT22;37915;53.254;6.598;2023-01-16T16:11:05;4.10;99.90
51884;DHT22;37915;53.254;6.598;2023-01-16T16:13:50;4.10;99.90
51884;DHT22;37915;53.254;6.598;2023-01-16T16:16:22;4.10;99.90
51884;DHT22;37915;53.254;6.598;2023-01-16T16:19:07;4.20;99.90
51884;DHT22;37915;53.254;6.598;2023-01-16T16:24:24;4.10;99.90
51884;DHT22;37915;53.254;6.598;2023-01-16T16:26:49;4.00;99.90
51884;DHT22;37915;53.254;6.598;2023-01-16T16:29:18;4.10;99.90
51884;DHT22;37915;53.254;6.598;2023-01-16T16:31:45;4.10;99.90
51884;DHT22;37915;53.254;6.598;2023-01-16T16:34:17;4.10;99.90
51884;DHT22;37915;53.254;6.598;2023-01-16T16:36:46;4.20;99.90
51884;DHT22;37915;53.254;6.598;2023-01-16T16:41:51;4.20;99.90
51884;DHT22;37915;53.254;6.598;2023-01-16T16:44:42;4.40;99.90
51884;DHT22;37915;53.254;6.598;2023-01-16T16:47:21;4.20;99.90
51884;DHT22;37915;53.254;6.598;2023-01-16T16:49:47;4.20;99.90
51884;DHT22;37915;53.254;6.598;2023-01-16T16:52:30;4.30;99.90
51884;DHT22;37915;53.254;6.598;2023-01-16T16:55:00;4.20;99.90
51884;DHT22;37915;53.254;6.598;2023-01-16T16:57:30;4.50;99.90
51884;DHT22;37915;53.254;6.598;2023-01-16T16:59:57;4.20;99.90
51884;DHT22;37915;53.254;6.598;2023-01-16T17:02:23;4.20;99.90
51884;DHT22;37915;53.254;6.598;2023-01-16T17:04:49;4.10;99.90
51884;DHT22;37915;53.254;6.598;2023-01-16T17:07:15;4.10;99.90
51884;DHT22;37915;53.254;6.598;2023-01-16T17:09:40;4.10;99.90
51884;DHT22;37915;53.254;6.598;2023-01-16T17:12:18;4.20;99.90
51884;DHT22;37915;53.254;6.598;2023-01-16T17:14:46;4.10;99.90
51884;DHT22;37915;53.254;6.598;2023-01-16T17:17:17;4.10;99.90
51884;DHT22;37915;53.254;6.598;2023-01-16T17:19:44;4.00;99.90
51884;DHT22;37915;53.254;6.598;2023-01-16T17:22:11;4.00;99.90
51884;DHT22;37915;53.254;6.598;2023-01-16T17:24:37;4.00;99.90
51884;DHT22;37915;53.254;6.598;2023-01-16T17:27:03;4.00;99.90
51884;DHT22;37915;53.254;6.598;2023-01-16T17:29:34;4.00;99.90
51884;DHT22;37915;53.254;6.598;2023-01-16T17:32:00;3.90;99.90
51884;DHT22;37915;53.254;6.598;2023-01-16T17:34:31;3.90;99.90
51884;DHT22;37915;53.254;6.598;2023-01-16T17:36:58;4.40;99.90
51884;DHT22;37915;53.254;6.598;2023-01-16T17:39:24;3.90;99.90
51884;DHT22;37915;53.254;6.598;2023-01-16T17:41:51;3.90;99.90
51884;DHT22;37915;53.254;6.598;2023-01-16T17:44:23;3.90;99.90
51884;DHT22;37915;53.254;6.598;2023-01-16T17:47:08;4.20;99.90
51884;DHT22;37915;53.254;6.598;2023-01-16T17:49:34;3.90;99.90
51884;DHT22;37915;53.254;6.598;2023-01-16T17:52:24;3.90;99.90
51884;DHT22;37915;53.254;6.598;2023-01-16T17:54:50;3.80;99.90
51884;DHT22;37915;53.254;6.598;2023-01-16T17:57:34;3.80;99.90
51884;DHT22;37915;53.254;6.598;2023-01-16T17:59:59;3.90;99.90
51884;DHT22;37915;53.254;6.598;2023-01-16T18:02:26;4.50;99.90
51884;DHT22;37915;53.254;6.598;2023-01-16T18:04:51;3.80;99.90
51884;DHT22;37915;53.254;6.598;2023-01-16T18:07:18;3.90;99.90
51884;DHT22;37915;53.254;6.598;2023-01-16T18:09:43;3.80;99.90
51884;DHT22;37915;53.254;6.598;2023-01-16T18:12:09;3.80;99.90
51884;DHT22;37915;53.254;6.598;2023-01-16T18:14:54;3.80;99.90
51884;DHT22;37915;53.254;6.598;2023-01-16T18:17:38;3.80;99.90
51884;DHT22;37915;53.254;6.598;2023-01-16T18:20:04;3.90;99.90
51884;DHT22;37915;53.254;6.598;2023-01-16T18:22:32;3.80;99.90
51884;DHT22;37915;53.254;6.598;2023-01-16T18:25:00;3.80;99.90
51884;DHT22;37915;53.254;6.598;2023-01-16T18:27:26;3.80;99.90
51884;DHT22;37915;53.254;6.598;2023-01-16T18:29:52;3.80;99.90
51884;DHT22;37915;53.254;6.598;2023-01-16T18:32:18;3.80;99.90